Time;durP1;ratioP1;P1;durP2;ratioP2;P2;SDS_P1;SDS_P2;PMS_P1;PMS_P2;Temp;Humidity;BMP_temperature;BMP_pressure;BME280_temperature;BME280_humidity;BME280_pressure;Samples;Min_cycle;Max_cycle;Signal;HPM_P1;HPM_P2
2021/11/09 00:00:33;;;;;;;0.55;0.55;;;3.60;99.90;;;;;;4995666;28;20026;-91
2021/11/09 00:03:00;;;;;;;0.60;0.60;;;3.70;99.90;;;;;;4995614;28;20373;-92
2021/11/09 00:05:33;;;;;;;0.40;0.40;;;3.70;99.90;;;;;;4995302;28;20026;-91
2021/11/09 00:08:06;;;;;;;0.40;0.40;;;3.60;99.90;;;;;;4995600;28;20096;-91
2021/11/09 00:10:33;;;;;;;1.40;1.30;;;3.70;99.90;;;;;;4995318;28;20551;-91
2021/11/09 00:13:02;;;;;;;2.15;2.00;;;3.70;99.90;;;;;;4995435;28;20022;-91
2021/11/09 00:15:29;;;;;;;0.77;0.60;;;3.80;99.90;;;;;;4995566;28;20022;-91
2021/11/09 00:18:01;;;;;;;0.40;0.40;;;3.80;99.90;;;;;;4995499;28;20025;-91
2021/11/09 00:20:30;;;;;;;0.40;0.40;;;3.80;99.90;;;;;;4995356;28;20034;-90
2021/11/09 00:22:57;;;;;;;0.30;0.30;;;3.80;99.90;;;;;;4994588;28;20029;-91
2021/11/09 00:25:24;;;;;;;0.40;0.40;;;3.70;99.90;;;;;;4995241;28;20398;-91
2021/11/09 00:27:50;;;;;;;0.50;0.50;;;3.60;99.90;;;;;;4995230;28;20088;-91
2021/11/09 00:30:19;;;;;;;3.40;3.20;;;3.70;99.90;;;;;;4995376;28;20032;-92
2021/11/09 00:32:45;;;;;;;3.33;3.13;;;3.80;99.90;;;;;;4995286;28;20022;-91
2021/11/09 00:35:13;;;;;;;0.35;0.35;;;3.70;99.90;;;;;;4995154;28;20034;-91
2021/11/09 00:37:41;;;;;;;2.50;1.27;;;3.60;99.90;;;;;;4994964;28;20049;-91
2021/11/09 00:40:08;;;;;;;0.80;0.80;;;3.50;99.90;;;;;;5009294;28;20113;-92
2021/11/09 00:42:35;;;;;;;1.25;1.15;;;3.30;99.90;;;;;;5006733;28;20115;-91
2021/11/09 00:45:02;;;;;;;0.55;0.55;;;3.30;99.90;;;;;;4994889;28;20026;-91
2021/11/09 00:47:27;;;;;;;0.35;0.35;;;3.30;99.90;;;;;;4995097;28;20030;-91
2021/11/09 00:49:53;;;;;;;0.50;0.50;;;3.30;99.90;;;;;;4994876;28;20100;-91
2021/11/09 00:52:19;;;;;;;0.30;0.30;;;3.30;99.90;;;;;;5011360;28;20030;-91
2021/11/09 00:54:45;;;;;;;0.30;0.30;;;3.30;99.90;;;;;;4994991;28;20026;-91
2021/11/09 00:57:11;;;;;;;0.40;0.40;;;3.40;99.90;;;;;;4994939;28;20080;-91
2021/11/09 00:59:36;;;;;;;0.40;0.40;;;3.40;99.90;;;;;;4994860;28;20113;-91
2021/11/09 01:02:02;;;;;;;0.40;0.40;;;3.50;99.90;;;;;;4994855;28;20026;-91
2021/11/09 01:04:29;;;;;;;0.50;0.50;;;3.50;99.90;;;;;;4994703;28;20068;-92
2021/11/09 01:06:55;;;;;;;0.30;0.30;;;3.70;99.90;;;;;;4994821;28;20034;-92
2021/11/09 01:09:22;;;;;;;0.40;0.40;;;3.90;99.90;;;;;;4994790;28;20121;-92
2021/11/09 01:11:50;;;;;;;0.40;0.40;;;3.80;99.90;;;;;;4994788;28;20037;-92
2021/11/09 01:14:17;;;;;;;0.38;0.38;;;3.80;99.90;;;;;;4994980;28;20029;-91
2021/11/09 01:16:43;;;;;;;1.95;1.85;;;3.80;99.90;;;;;;4999716;28;20018;-93
2021/11/09 01:19:09;;;;;;;0.40;0.40;;;3.80;99.90;;;;;;5016325;28;20022;-91
2021/11/09 01:21:36;;;;;;;0.40;0.40;;;3.80;99.90;;;;;;4998721;28;20446;-91
2021/11/09 01:24:03;;;;;;;0.40;0.40;;;3.70;99.90;;;;;;4994742;28;20398;-91
2021/11/09 01:26:29;;;;;;;0.40;0.40;;;3.70;99.90;;;;;;4994459;28;20450;-91
2021/11/09 01:28:57;;;;;;;0.40;0.40;;;3.70;99.90;;;;;;4994622;28;20041;-91
2021/11/09 01:31:24;;;;;;;0.30;0.30;;;3.80;99.90;;;;;;4994804;28;20030;-91
2021/11/09 01:33:52;;;;;;;2.85;2.28;;;3.80;99.90;;;;;;4994431;28;20036;-91
2021/11/09 01:36:19;;;;;;;0.30;0.30;;;3.80;99.90;;;;;;5013124;28;20033;-91
2021/11/09 01:38:45;;;;;;;0.32;0.32;;;4.00;99.90;;;;;;4998305;28;20491;-92
2021/11/09 01:41:12;;;;;;;0.30;0.30;;;4.10;99.90;;;;;;4998083;28;20091;-91
2021/11/09 01:43:39;;;;;;;0.40;0.40;;;4.20;99.90;;;;;;4998432;28;20452;-91
2021/11/09 01:46:07;;;;;;;0.32;0.32;;;4.10;99.90;;;;;;4998025;28;20454;-91
2021/11/09 01:48:34;;;;;;;0.30;0.30;;;4.10;99.90;;;;;;4998242;28;20021;-91
2021/11/09 01:51:04;;;;;;;0.30;0.30;;;4.00;99.90;;;;;;4998005;28;20022;-91
2021/11/09 01:53:30;;;;;;;0.30;0.30;;;4.10;99.90;;;;;;5014373;28;20042;-91
2021/11/09 01:56:00;;;;;;;0.40;0.40;;;4.00;99.90;;;;;;4997679;28;20026;-90
2021/11/09 01:58:26;;;;;;;0.50;0.50;;;4.10;99.90;;;;;;4997999;28;20025;-91
2021/11/09 02:00:59;;;;;;;0.38;0.38;;;4.20;99.90;;;;;;4997777;28;20026;-92
2021/11/09 02:03:26;;;;;;;0.32;0.32;;;4.30;99.90;;;;;;4997746;28;20548;-91
2021/11/09 02:05:53;;;;;;;0.50;0.50;;;4.20;99.90;;;;;;4997405;28;20125;-91
2021/11/09 02:08:19;;;;;;;0.52;0.52;;;4.20;99.90;;;;;;4998152;28;20558;-91
2021/11/09 02:10:47;;;;;;;0.65;0.65;;;4.40;99.90;;;;;;4997378;28;20026;-90
2021/11/09 02:13:13;;;;;;;0.63;0.63;;;4.40;99.90;;;;;;4997550;28;20022;-91
2021/11/09 02:15:40;;;;;;;0.30;0.30;;;4.40;99.90;;;;;;4997440;28;20022;-92
2021/11/09 02:18:09;;;;;;;4.68;1.05;;;4.50;99.90;;;;;;4997550;28;20022;-91
2021/11/09 02:20:35;;;;;;;0.40;0.40;;;4.60;99.90;;;;;;4997200;28;20037;-92
2021/11/09 02:23:03;;;;;;;5.20;4.20;;;4.50;99.90;;;;;;4997527;28;20422;-92
2021/11/09 02:25:31;;;;;;;0.63;0.63;;;4.40;99.90;;;;;;4997059;28;20121;-92
2021/11/09 02:27:59;;;;;;;0.20;0.20;;;4.50;99.90;;;;;;4997217;28;20033;-91
2021/11/09 02:30:26;;;;;;;0.35;0.35;;;4.40;99.90;;;;;;4997280;28;20033;-91
2021/11/09 02:32:54;;;;;;;0.55;0.55;;;4.50;99.90;;;;;;4997310;28;20438;-91
2021/11/09 02:35:22;;;;;;;0.25;0.25;;;4.50;99.90;;;;;;4996904;28;20026;-91
2021/11/09 02:37:52;;;;;;;0.32;0.32;;;4.60;99.90;;;;;;4997124;28;20465;-91
2021/11/09 02:40:20;;;;;;;0.20;0.20;;;4.70;99.90;;;;;;4997182;28;20025;-91
2021/11/09 02:42:50;;;;;;;0.30;0.30;;;4.70;99.90;;;;;;4997148;28;20061;-91
2021/11/09 02:45:22;;;;;;;2.88;0.75;;;4.90;99.90;;;;;;4996690;28;20076;-91
2021/11/09 02:47:55;;;;;;;1.75;1.65;;;4.80;99.90;;;;;;4996416;28;20065;-91
2021/11/09 02:50:24;;;;;;;0.40;0.40;;;4.80;99.90;;;;;;4996821;28;20037;-91
2021/11/09 02:53:02;;;;;;;0.40;0.40;;;4.70;99.90;;;;;;4996723;28;20053;-91
2021/11/09 02:55:36;;;;;;;0.40;0.40;;;4.70;99.90;;;;;;5012946;28;20113;-91
2021/11/09 03:00:50;;;;;;;0.50;0.50;;;4.50;99.90;;;;;;5013066;28;20025;-91
2021/11/09 03:03:27;;;;;;;0.60;0.60;;;4.30;99.90;;;;;;4996540;28;20083;-91
2021/11/09 03:06:07;;;;;;;0.30;0.30;;;4.20;99.90;;;;;;4996704;28;20491;-91
2021/11/09 03:08:37;;;;;;;0.22;0.22;;;4.00;99.90;;;;;;4996407;28;20034;-91
2021/11/09 03:11:04;;;;;;;0.30;0.30;;;4.00;99.90;;;;;;4996518;28;20403;-91
2021/11/09 03:13:30;;;;;;;21.98;8.45;;;4.30;99.90;;;;;;4996380;28;20022;-92
2021/11/09 03:16:01;;;;;;;1.45;0.73;;;4.50;99.90;;;;;;4996230;28;20614;-92
2021/11/09 03:18:29;;;;;;;0.63;0.63;;;4.50;99.90;;;;;;5012701;28;20160;-91
2021/11/09 03:23:06;;;;;;;0.55;0.55;;;4.50;99.90;;;;;;5023444;23;20123;-73
2021/11/09 03:45:32;;;;;;;1.33;1.33;;;4.30;99.90;;;;;;5032578;28;20414;-73
2021/11/09 03:48:05;;;;;;;0.30;0.30;;;4.40;99.90;;;;;;5032762;28;20381;-73
2021/11/09 03:50:34;;;;;;;0.60;0.60;;;4.30;99.90;;;;;;5032640;28;20397;-73
2021/11/09 03:53:06;;;;;;;0.57;0.57;;;4.10;99.90;;;;;;5031295;28;20034;-73
2021/11/09 03:58:15;;;;;;;0.40;0.40;;;4.00;99.90;;;;;;5031787;28;20033;-73
2021/11/09 04:00:51;;;;;;;0.40;0.40;;;3.90;99.90;;;;;;5047799;28;20484;-73
2021/11/09 04:06:07;;;;;;;0.50;0.50;;;4.10;99.90;;;;;;5032236;28;20082;-73
2021/11/09 04:22:05;;;;;;;1.27;0.93;;;4.00;99.90;;;;;;5032043;28;20037;-73
2021/11/09 04:30:24;;;;;;;0.30;0.30;;;3.70;99.90;;;;;;5032179;28;20484;-73
2021/11/09 05:01:12;;;;;;;0.30;0.30;;;3.90;99.90;;;;;;5012185;28;20046;-73
2021/11/09 05:11:37;;;;;;;0.30;0.30;;;3.80;99.90;;;;;;5035700;28;20025;-73
2021/11/09 05:14:06;;;;;;;1.35;1.30;;;3.80;99.90;;;;;;5034478;28;20473;-73
2021/11/09 05:16:33;;;;;;;0.82;0.82;;;3.80;99.90;;;;;;5050751;28;20102;-73
2021/11/09 05:18:58;;;;;;;0.50;0.50;;;3.70;99.90;;;;;;5034153;28;20500;-73
2021/11/09 05:21:24;;;;;;;0.30;0.30;;;3.60;99.90;;;;;;5034049;28;20101;-73
2021/11/09 05:23:50;;;;;;;0.28;0.28;;;3.70;99.90;;;;;;5034251;28;20060;-73
2021/11/09 05:26:16;;;;;;;1.88;1.15;;;3.80;99.90;;;;;;5034086;28;20040;-73
2021/11/09 05:28:41;;;;;;;0.30;0.30;;;3.80;99.90;;;;;;5034127;28;20072;-73
2021/11/09 05:31:07;;;;;;;2.08;1.98;;;3.90;99.90;;;;;;5017653;28;20029;-73
2021/11/09 05:33:33;;;;;;;0.60;0.60;;;3.90;99.90;;;;;;5035230;28;20026;-73
2021/11/09 05:36:00;;;;;;;1.25;1.17;;;3.70;99.90;;;;;;5035106;28;20030;-73
2021/11/09 05:38:31;;;;;;;0.70;0.70;;;3.60;99.90;;;;;;5033980;28;20021;-73
2021/11/09 05:41:05;;;;;;;2.92;1.20;;;3.50;99.90;;;;;;5017350;28;20041;-73
2021/11/09 05:43:31;;;;;;;0.60;0.60;;;3.40;99.90;;;;;;5017414;28;20025;-73
2021/11/09 05:45:56;;;;;;;0.30;0.30;;;3.50;99.90;;;;;;5033443;28;20369;-73
2021/11/09 05:48:22;;;;;;;0.82;0.80;;;3.60;99.90;;;;;;5035096;28;20497;-73
2021/11/09 05:50:49;;;;;;;0.68;0.68;;;3.60;99.90;;;;;;5033562;28;20421;-73
2021/11/09 05:53:15;;;;;;;0.40;0.40;;;3.50;99.90;;;;;;5033850;28;20025;-73
2021/11/09 05:55:41;;;;;;;0.60;0.60;;;3.60;99.90;;;;;;5050124;28;20025;-73
2021/11/09 05:58:07;;;;;;;0.30;0.30;;;3.50;99.90;;;;;;5034795;28;20087;-73
2021/11/09 06:00:33;;;;;;;0.35;0.35;;;3.50;99.90;;;;;;5033523;28;20029;-73
2021/11/09 06:02:58;;;;;;;0.68;0.65;;;3.60;99.90;;;;;;5033801;28;20373;-73
2021/11/09 06:05:24;;;;;;;0.40;0.40;;;3.60;99.90;;;;;;5033430;28;20073;-73
2021/11/09 06:07:50;;;;;;;0.30;0.30;;;3.70;99.90;;;;;;5050047;28;20120;-73
2021/11/09 06:10:16;;;;;;;0.52;0.52;;;3.70;99.90;;;;;;5033398;28;20029;-73
2021/11/09 06:12:41;;;;;;;0.50;0.50;;;3.70;99.90;;;;;;5016910;28;20397;-73
2021/11/09 06:15:07;;;;;;;0.30;0.30;;;3.60;99.90;;;;;;5034479;28;20109;-73
2021/11/09 06:17:33;;;;;;;0.80;0.80;;;3.70;99.90;;;;;;5034457;28;20021;-73
2021/11/09 06:19:59;;;;;;;0.77;0.77;;;3.60;99.90;;;;;;5049672;28;20066;-73
2021/11/09 06:22:25;;;;;;;0.40;0.40;;;3.70;99.90;;;;;;5048885;28;20045;-73
2021/11/09 06:24:51;;;;;;;0.80;0.80;;;3.80;99.90;;;;;;5033090;28;20029;-73
2021/11/09 06:27:18;;;;;;;0.40;0.40;;;3.80;99.90;;;;;;5034385;28;20430;-72
2021/11/09 06:29:44;;;;;;;0.52;0.52;;;3.60;99.90;;;;;;5033443;28;20025;-72
2021/11/09 06:32:10;;;;;;;0.73;0.73;;;3.50;99.90;;;;;;5033917;28;20032;-72
2021/11/09 06:34:36;;;;;;;0.40;0.40;;;3.50;99.90;;;;;;5032743;28;20022;-72
2021/11/09 06:37:02;;;;;;;0.60;0.60;;;3.30;99.90;;;;;;5033958;28;20453;-73
2021/11/09 06:39:28;;;;;;;0.60;0.60;;;3.30;99.90;;;;;;5016011;28;20075;-72
2021/11/09 06:41:54;;;;;;;0.60;0.60;;;3.30;99.90;;;;;;5032780;28;20428;-72
2021/11/09 06:44:20;;;;;;;0.80;0.80;;;3.30;99.90;;;;;;5033866;28;20102;-72
2021/11/09 06:46:46;;;;;;;0.95;0.90;;;3.30;99.90;;;;;;5032474;28;20029;-71
2021/11/09 06:49:12;;;;;;;0.20;0.20;;;3.30;99.90;;;;;;5032619;28;20354;-70
2021/11/09 06:51:38;;;;;;;2.50;1.92;;;3.40;99.90;;;;;;5033937;28;20108;-70
2021/11/09 06:54:03;;;;;;;0.60;0.60;;;3.30;99.90;;;;;;5033830;28;20124;-71
2021/11/09 06:56:29;;;;;;;0.52;0.52;;;3.20;99.90;;;;;;5033758;28;20026;-70
2021/11/09 06:58:55;;;;;;;1.65;0.90;;;3.00;99.90;;;;;;5033757;28;20117;-70
2021/11/09 07:01:21;;;;;;;1.25;1.25;;;3.00;99.90;;;;;;5032830;28;20052;-70
2021/11/09 07:03:47;;;;;;;1.05;0.73;;;3.10;99.90;;;;;;5032574;28;20029;-70
2021/11/09 07:06:13;;;;;;;0.50;0.50;;;3.20;99.90;;;;;;5034034;28;20037;-70
2021/11/09 07:08:39;;;;;;;1.50;1.40;;;3.30;99.90;;;;;;5032198;28;20182;-70
2021/11/09 07:11:05;;;;;;;0.50;0.50;;;3.30;99.90;;;;;;5033579;28;20101;-71
2021/11/09 07:13:34;;;;;;;0.30;0.30;;;3.20;99.90;;;;;;5033451;28;20025;-70
2021/11/09 07:16:02;;;;;;;0.43;0.43;;;3.00;99.90;;;;;;5033497;28;20079;-70
2021/11/09 07:18:28;;;;;;;0.40;0.40;;;3.00;99.90;;;;;;5015859;28;20041;-70
2021/11/09 07:20:54;;;;;;;0.35;0.35;;;3.00;99.90;;;;;;5031746;28;20071;-70
2021/11/09 07:23:20;;;;;;;1.67;1.58;;;3.00;99.90;;;;;;5032119;28;20057;-70
2021/11/09 07:25:46;;;;;;;1.05;0.95;;;2.90;99.90;;;;;;5032256;28;20489;-70
2021/11/09 07:28:12;;;;;;;0.30;0.30;;;2.90;99.90;;;;;;5032299;28;20037;-71
2021/11/09 07:30:43;;;;;;;0.60;0.60;;;2.90;99.90;;;;;;5033193;28;20503;-71
2021/11/09 07:33:10;;;;;;;1.35;1.13;;;3.00;99.90;;;;;;5031982;28;20389;-73
2021/11/09 07:35:37;;;;;;;0.30;0.30;;;3.00;99.90;;;;;;5033005;28;20032;-73
2021/11/09 07:38:03;;;;;;;0.40;0.40;;;3.20;99.90;;;;;;5032941;28;20108;-73
2021/11/09 07:40:29;;;;;;;0.43;0.43;;;3.10;99.90;;;;;;5032864;28;20032;-73
2021/11/09 07:42:55;;;;;;;0.43;0.43;;;3.10;99.90;;;;;;5032962;28;20025;-73
2021/11/09 07:45:22;;;;;;;0.40;0.40;;;3.10;99.90;;;;;;5032814;28;20037;-72
2021/11/09 07:47:49;;;;;;;0.70;0.70;;;3.20;99.90;;;;;;5031587;28;20021;-72
2021/11/09 07:50:18;;;;;;;1.05;1.05;;;3.10;99.90;;;;;;5032803;28;20069;-72
2021/11/09 07:52:45;;;;;;;0.45;0.45;;;3.10;99.90;;;;;;5015226;28;20032;-72
2021/11/09 07:55:19;;;;;;;0.50;0.50;;;3.40;99.90;;;;;;5031472;28;20057;-73
2021/11/09 07:57:49;;;;;;;0.60;0.60;;;3.40;99.90;;;;;;5031635;28;20225;-73
2021/11/09 08:00:21;;;;;;;0.65;0.65;;;3.30;99.90;;;;;;5032553;28;20025;-72
2021/11/09 08:03:10;;;;;;;2.40;1.88;;;3.10;99.90;;;;;;5015000;28;20108;-72
2021/11/09 08:05:57;;;;;;;0.80;0.80;;;3.00;99.90;;;;;;5028970;28;20083;-73
2021/11/09 08:08:37;;;;;;;1.55;1.45;;;3.20;99.90;;;;;;5032492;28;20044;-73
2021/11/09 08:11:03;;;;;;;2.92;1.15;;;3.20;99.90;;;;;;5031239;28;20481;-73
2021/11/09 08:13:29;;;;;;;0.50;0.50;;;2.90;99.90;;;;;;5031772;28;20076;-73
2021/11/09 08:15:54;;;;;;;0.82;0.82;;;2.90;99.90;;;;;;5030915;28;20445;-73
2021/11/09 08:18:21;;;;;;;1.33;1.15;;;2.90;99.90;;;;;;5012685;28;20520;-72
2021/11/09 08:20:46;;;;;;;1.27;1.17;;;2.90;99.90;;;;;;5028836;28;20086;-73
2021/11/09 08:23:12;;;;;;;0.45;0.45;;;2.80;99.90;;;;;;5029300;28;20092;-72
2021/11/09 08:25:39;;;;;;;0.60;0.60;;;3.00;99.90;;;;;;5029321;28;20032;-71
2021/11/09 08:28:05;;;;;;;3.90;2.10;;;2.90;99.90;;;;;;5030494;28;20366;-69
2021/11/09 08:30:31;;;;;;;0.47;0.47;;;2.70;99.90;;;;;;5031112;28;20033;-71
2021/11/09 08:32:59;;;;;;;0.65;0.65;;;2.60;99.90;;;;;;5032431;28;20124;-72
2021/11/09 08:35:26;;;;;;;1.58;0.85;;;2.60;99.90;;;;;;5032270;28;20017;-71
2021/11/09 08:37:52;;;;;;;0.63;0.63;;;2.70;99.90;;;;;;5031039;28;20049;-71
2021/11/09 08:40:23;;;;;;;2.75;1.30;;;2.70;99.90;;;;;;5030773;28;20025;-72
2021/11/09 08:42:55;;;;;;;0.43;0.43;;;2.70;99.90;;;;;;5030871;28;20021;-72
2021/11/09 08:45:31;;;;;;;0.90;0.90;;;2.70;99.90;;;;;;5031854;28;20022;-72
2021/11/09 08:48:11;;;;;;;0.68;0.68;;;2.80;99.90;;;;;;5014489;28;20507;-72
2021/11/09 08:50:37;;;;;;;0.50;0.50;;;2.90;99.90;;;;;;5030713;28;20022;-73
2021/11/09 08:53:08;;;;;;;3.30;2.17;;;3.00;99.90;;;;;;5031932;28;20499;-72
2021/11/09 08:55:52;;;;;;;0.30;0.30;;;3.10;99.90;;;;;;5031900;28;20033;-73
2021/11/09 09:06:31;;;;;;;1.65;1.50;;;3.20;99.90;;;;;;5046962;28;20026;-73
2021/11/09 09:08:59;;;;;;;1.58;1.50;;;3.30;99.90;;;;;;5031581;28;20385;-73
2021/11/09 09:11:25;;;;;;;1.13;1.05;;;3.40;99.90;;;;;;5030777;28;20505;-73
2021/11/09 09:13:51;;;;;;;0.50;0.50;;;3.40;99.90;;;;;;5031778;28;20079;-73
2021/11/09 09:16:17;;;;;;;4.68;3.10;;;3.50;99.90;;;;;;5013935;28;20112;-73
2021/11/09 09:18:43;;;;;;;1.10;1.10;;;3.50;99.90;;;;;;5030354;28;20031;-73
2021/11/09 09:21:14;;;;;;;2.20;1.63;;;3.50;99.90;;;;;;5031509;28;20040;-73
2021/11/09 09:23:48;;;;;;;6.40;3.10;;;3.60;99.90;;;;;;5046953;23;20042;-90
2021/11/09 09:56:41;;;;;;;1.45;1.27;;;4.40;99.90;;;;;;5000747;28;20037;-90
2021/11/09 09:59:11;;;;;;;6.03;2.83;;;4.60;99.90;;;;;;5018919;28;20095;-90
2021/11/09 10:01:43;;;;;;;0.30;0.30;;;4.80;99.90;;;;;;5001840;28;20029;-90
2021/11/09 10:04:29;;;;;;;0.98;0.98;;;4.80;99.90;;;;;;5001824;28;20034;-90
2021/11/09 10:06:56;;;;;;;2.25;1.40;;;4.70;99.90;;;;;;4994231;28;20026;-90
2021/11/09 10:09:51;;;;;;;1.58;0.70;;;4.60;99.90;;;;;;4982057;28;20034;-90
2021/11/09 10:12:33;;;;;;;0.52;0.52;;;4.60;99.90;;;;;;4974248;28;20422;-90
2021/11/09 10:15:11;;;;;;;0.82;0.77;;;4.70;99.90;;;;;;4982369;28;20022;-90
2021/11/09 10:17:46;;;;;;;3.80;1.52;;;4.90;99.90;;;;;;4982415;28;20491;-91
2021/11/09 10:20:18;;;;;;;3.03;1.00;;;4.80;99.90;;;;;;4981994;28;20030;-90
2021/11/09 10:22:51;;;;;;;1.05;0.93;;;4.80;99.90;;;;;;4982004;28;20133;-90
2021/11/09 10:25:19;;;;;;;0.82;0.82;;;4.70;99.90;;;;;;4981900;28;20037;-90
2021/11/09 10:27:48;;;;;;;1.85;1.45;;;4.70;99.90;;;;;;4982436;28;20438;-90
2021/11/09 10:30:25;;;;;;;1.85;0.88;;;4.80;99.90;;;;;;4982616;28;20056;-90
2021/11/09 10:32:52;;;;;;;1.05;1.05;;;5.40;99.90;;;;;;4982299;28;20022;-90
2021/11/09 10:35:19;;;;;;;0.30;0.30;;;5.90;99.90;;;;;;4981571;28;20033;-90
2021/11/09 10:37:48;;;;;;;0.40;0.40;;;6.00;99.90;;;;;;4981925;28;20022;-91
2021/11/09 10:40:19;;;;;;;3.30;1.58;;;6.00;99.90;;;;;;4982292;28;20044;-90
2021/11/09 10:42:48;;;;;;;0.40;0.40;;;5.80;99.90;;;;;;4981467;28;20018;-90
2021/11/09 10:45:17;;;;;;;1.15;1.15;;;5.80;99.90;;;;;;4981348;28;20871;-90
2021/11/09 10:47:52;;;;;;;0.47;0.47;;;5.80;99.90;;;;;;4982113;28;20050;-90
2021/11/09 10:50:24;;;;;;;0.35;0.32;;;5.70;99.90;;;;;;4981741;28;20026;-90
2021/11/09 10:53:21;;;;;;;2.20;1.33;;;5.50;99.90;;;;;;4981770;28;20022;-90
2021/11/09 10:56:45;;;;;;;1.35;1.25;;;5.30;99.90;;;;;;4982092;28;20097;-90
2021/11/09 10:59:28;;;;;;;1.48;1.13;;;5.10;99.90;;;;;;4982812;28;20050;-91
2021/11/09 11:04:43;;;;;;;5.10;2.60;;;5.90;99.90;;;;;;4997220;28;20065;-91
2021/11/09 11:07:11;;;;;;;1.30;1.23;;;6.50;99.90;;;;;;4984020;28;20049;-91
2021/11/09 11:09:42;;;;;;;1.80;1.48;;;6.60;99.90;;;;;;4987707;28;20030;-91
2021/11/09 11:12:14;;;;;;;1.35;0.55;;;7.20;99.90;;;;;;4981024;28;20029;-91
2021/11/09 11:14:42;;;;;;;0.57;0.57;;;7.80;99.90;;;;;;4983385;28;20026;-91
2021/11/09 11:17:12;;;;;;;0.52;0.52;;;8.90;99.90;;;;;;5000603;28;20037;-91
2021/11/09 11:19:46;;;;;;;0.40;0.40;;;9.90;99.90;;;;;;5001052;28;20021;-92
2021/11/09 11:22:17;;;;;;;0.45;0.45;;;9.80;99.40;;;;;;5001290;28;20021;-91
2021/11/09 11:24:54;;;;;;;0.60;0.60;;;8.80;99.30;;;;;;4987808;28;20521;-91
2021/11/09 11:27:26;;;;;;;0.40;0.40;;;7.90;99.90;;;;;;4983078;28;20098;-92
2021/11/09 11:29:53;;;;;;;0.95;0.95;;;7.60;99.90;;;;;;4993902;28;20049;-91
2021/11/09 11:32:31;;;;;;;0.20;0.20;;;7.20;99.90;;;;;;4983072;28;20084;-91
2021/11/09 11:34:57;;;;;;;1.52;1.33;;;7.80;99.90;;;;;;4982097;28;20026;-91
2021/11/09 11:37:23;;;;;;;2.63;1.27;;;8.00;99.90;;;;;;4984478;28;20064;-91
2021/11/09 11:39:54;;;;;;;0.68;0.68;;;7.60;99.90;;;;;;4981945;28;20121;-92
2021/11/09 11:42:20;;;;;;;7.70;4.70;;;8.00;99.90;;;;;;5000551;28;20499;-92
2021/11/09 11:44:58;;;;;;;0.20;0.20;;;9.00;99.90;;;;;;5011921;28;20018;-93
2021/11/09 11:47:24;;;;;;;0.75;0.75;;;10.30;99.50;;;;;;5011857;28;20034;-92
2021/11/09 11:49:53;;;;;;;0.90;0.90;;;10.50;95.90;;;;;;5001153;28;20033;-92
2021/11/09 11:52:27;;;;;;;0.73;0.73;;;11.00;95.10;;;;;;5000876;28;20056;-93
2021/11/09 11:55:05;;;;;;;0.65;0.63;;;11.00;91.60;;;;;;5000010;28;20018;-92
2021/11/09 11:57:41;;;;;;;0.95;0.95;;;9.90;93.10;;;;;;5000929;28;20065;-92
2021/11/09 12:00:28;;;;;;;1.42;0.93;;;9.00;94.90;;;;;;5000563;28;20733;-92
2021/11/09 12:02:55;;;;;;;0.20;0.20;;;8.40;97.20;;;;;;4999991;28;20033;-93
2021/11/09 12:05:43;;;;;;;1.45;1.17;;;8.30;99.10;;;;;;5000577;28;20025;-92
2021/11/09 12:08:11;;;;;;;1.35;1.15;;;7.90;99.90;;;;;;5000630;28;20025;-91
2021/11/09 12:10:49;;;;;;;1.00;0.60;;;7.60;99.90;;;;;;5000045;28;20060;-92
2021/11/09 12:13:21;;;;;;;0.20;0.20;;;7.60;99.90;;;;;;4999938;28;20021;-92
2021/11/09 12:15:50;;;;;;;0.20;0.20;;;8.10;99.90;;;;;;5000265;28;20234;-93
2021/11/09 12:18:28;;;;;;;1.55;1.27;;;9.00;99.90;;;;;;5000297;28;20066;-92
2021/11/09 12:20:57;;;;;;;1.45;1.35;;;9.40;99.80;;;;;;5000807;28;20048;-93
2021/11/09 12:23:23;;;;;;;0.40;0.40;;;9.30;99.00;;;;;;5001518;28;20479;-92
2021/11/09 12:25:50;;;;;;;0.77;0.77;;;9.20;99.70;;;;;;5006012;28;20036;-92
2021/11/09 12:28:17;;;;;;;1.52;1.33;;;8.90;99.90;;;;;;5003411;28;20533;-91
2021/11/09 12:30:53;;;;;;;0.60;0.60;;;8.70;99.90;;;;;;4988239;28;20065;-91
2021/11/09 12:33:38;;;;;;;0.35;0.35;;;8.50;99.90;;;;;;4990615;28;20025;-91
2021/11/09 12:36:04;;;;;;;0.90;0.45;;;9.10;99.90;;;;;;4979687;28;20080;-91
2021/11/09 12:38:31;;;;;;;2.90;1.83;;;9.70;99.90;;;;;;4995672;28;20052;-91
2021/11/09 12:40:58;;;;;;;1.30;1.27;;;10.70;98.60;;;;;;4980412;28;20075;-91
2021/11/09 12:43:55;;;;;;;0.20;0.20;;;11.80;94.70;;;;;;4979740;28;20113;-92
2021/11/09 12:46:31;;;;;;;0.40;0.40;;;12.70;91.20;;;;;;4989400;28;20116;-91
2021/11/09 12:49:04;;;;;;;1.00;0.93;;;12.70;90.40;;;;;;4998993;28;20028;-91
2021/11/09 12:51:32;;;;;;;0.35;0.35;;;13.30;87.00;;;;;;5000200;28;20025;-91
2021/11/09 12:54:03;;;;;;;0.20;0.20;;;13.90;83.10;;;;;;4998887;28;20033;-92
2021/11/09 12:56:33;;;;;;;0.20;0.20;;;13.40;83.90;;;;;;4998467;28;20026;-92
2021/11/09 12:59:06;;;;;;;0.30;0.30;;;13.80;81.50;;;;;;4998576;28;20022;-90
2021/11/09 13:01:57;;;;;;;0.52;0.40;;;14.00;79.20;;;;;;4998263;28;20116;-91
2021/11/09 13:04:33;;;;;;;0.10;0.10;;;13.90;77.00;;;;;;4998149;28;20164;-91
2021/11/09 13:09:46;;;;;;;0.20;0.20;;;12.50;79.80;;;;;;5014690;28;20026;-90
2021/11/09 13:12:18;;;;;;;0.40;0.40;;;12.00;83.10;;;;;;4998117;28;20032;-91
2021/11/09 13:14:49;;;;;;;6.63;2.42;;;11.70;84.70;;;;;;4998553;28;20437;-91
2021/11/09 13:17:25;;;;;;;0.28;0.28;;;11.60;85.30;;;;;;4998346;28;20029;-91
2021/11/09 13:20:23;;;;;;;0.50;0.50;;;11.00;86.20;;;;;;4998073;28;20380;-91
2021/11/09 13:22:54;;;;;;;0.38;0.38;;;10.10;87.80;;;;;;4993228;28;20529;-91
2021/11/09 13:25:32;;;;;;;0.20;0.20;;;9.90;90.50;;;;;;4997293;28;20036;-90
2021/11/09 13:28:01;;;;;;;4.28;2.15;;;9.90;91.20;;;;;;4998156;28;20114;-90
2021/11/09 13:30:27;;;;;;;1.08;0.77;;;9.90;90.60;;;;;;4999425;28;20355;-91
2021/11/09 13:32:56;;;;;;;1.15;1.05;;;9.80;91.20;;;;;;5002494;28;20026;-91
2021/11/09 13:35:24;;;;;;;1.48;1.38;;;9.70;90.50;;;;;;5002044;28;20063;-90
2021/11/09 13:38:05;;;;;;;0.73;0.73;;;9.40;90.80;;;;;;5002047;28;20025;-91
2021/11/09 13:40:31;;;;;;;6.78;1.55;;;9.20;90.90;;;;;;5001956;28;20032;-90
2021/11/09 13:42:58;;;;;;;1.20;1.17;;;9.10;91.10;;;;;;5002256;28;20057;-91
2021/11/09 13:45:24;;;;;;;1.05;0.77;;;9.00;91.00;;;;;;5001883;28;20057;-90
2021/11/09 13:47:50;;;;;;;0.30;0.30;;;9.10;91.40;;;;;;5002010;28;20034;-91
2021/11/09 13:50:16;;;;;;;1.08;0.70;;;9.30;91.70;;;;;;5002030;28;20026;-90
2021/11/09 13:52:47;;;;;;;4.55;2.20;;;9.30;91.90;;;;;;5001919;28;20021;-90
2021/11/09 13:55:16;;;;;;;1.17;0.68;;;9.20;92.00;;;;;;5001624;28;20029;-90
2021/11/09 13:57:42;;;;;;;0.82;0.82;;;9.10;93.70;;;;;;5002112;28;20103;-91
2021/11/09 14:00:23;;;;;;;1.05;1.05;;;8.80;92.40;;;;;;5002387;28;20033;-90
2021/11/09 14:03:02;;;;;;;1.15;0.88;;;8.60;93.00;;;;;;5002123;28;20376;-91
2021/11/09 14:16:55;;;;;;;0.28;0.28;;;7.90;96.30;;;;;;5018159;28;20483;-91
2021/11/09 14:19:32;;;;;;;2.63;1.27;;;7.90;96.60;;;;;;5002474;28;20030;-91
2021/11/09 14:22:06;;;;;;;0.63;0.63;;;7.90;96.50;;;;;;5001631;28;20032;-91
2021/11/09 14:24:32;;;;;;;1.05;1.02;;;7.80;97.10;;;;;;5017720;28;20425;-91
2021/11/09 14:27:06;;;;;;;0.50;0.50;;;7.60;97.90;;;;;;5001852;28;20112;-91
2021/11/09 14:29:36;;;;;;;0.82;0.82;;;7.60;98.60;;;;;;5002103;28;20025;-90
2021/11/09 14:32:06;;;;;;;0.40;0.40;;;7.70;99.30;;;;;;5001441;28;20045;-90
2021/11/09 14:34:32;;;;;;;2.60;1.35;;;7.80;98.90;;;;;;5001893;28;20490;-91
2021/11/09 14:37:06;;;;;;;0.80;0.80;;;7.80;99.10;;;;;;5003483;28;20128;-91
2021/11/09 14:39:38;;;;;;;0.68;0.68;;;7.70;99.70;;;;;;5001587;28;20113;-90
2021/11/09 14:42:23;;;;;;;0.43;0.43;;;7.60;99.90;;;;;;5002033;28;20053;-90
2021/11/09 14:45:20;;;;;;;0.52;0.52;;;7.60;99.90;;;;;;5001673;28;20113;-91
2021/11/09 14:47:52;;;;;;;8.10;2.97;;;7.60;99.90;;;;;;4998673;28;20076;-90
2021/11/09 14:50:30;;;;;;;0.20;0.20;;;7.60;99.90;;;;;;5001471;28;20032;-91
2021/11/09 14:53:13;;;;;;;0.75;0.75;;;7.70;99.90;;;;;;5001342;28;20049;-91
2021/11/09 14:55:48;;;;;;;0.30;0.30;;;7.70;99.90;;;;;;5001383;28;20029;-91
2021/11/09 14:58:37;;;;;;;0.63;0.63;;;7.70;99.90;;;;;;5001037;28;20017;-90
2021/11/09 15:01:33;;;;;;;0.20;0.20;;;7.80;99.90;;;;;;5001683;28;20032;-90
2021/11/09 15:04:22;;;;;;;1.00;1.00;;;7.80;99.90;;;;;;5017261;28;20056;-91
2021/11/09 15:06:58;;;;;;;0.30;0.30;;;7.60;99.90;;;;;;5001766;28;20021;-90
2021/11/09 15:12:17;;;;;;;0.45;0.45;;;7.50;99.90;;;;;;5017828;28;20056;-91
2021/11/09 15:25:46;;;;;;;0.20;0.20;;;7.50;99.90;;;;;;5040316;23;20053;-74
2021/11/09 15:28:21;;;;;;;0.40;0.40;;;7.40;99.90;;;;;;4995793;28;20057;-75
2021/11/09 15:33:36;;;;;;;1.25;1.17;;;7.30;99.90;;;;;;5013061;28;20539;-74
2021/11/09 15:38:36;;;;;;;0.80;0.70;;;7.40;99.90;;;;;;5011612;28;20022;-74
2021/11/09 15:41:03;;;;;;;0.43;0.43;;;7.30;99.90;;;;;;5011445;28;20034;-74
2021/11/09 15:43:32;;;;;;;0.30;0.30;;;7.20;99.90;;;;;;5012728;28;20026;-73
2021/11/09 15:46:00;;;;;;;0.40;0.40;;;7.20;99.90;;;;;;5011363;28;20026;-73
2021/11/09 15:48:26;;;;;;;0.28;0.28;;;7.10;99.90;;;;;;5011608;28;20049;-73
2021/11/09 15:50:53;;;;;;;1.20;1.10;;;7.10;99.90;;;;;;5012618;28;20030;-73